Time;durP1;ratioP1;P1;durP2;ratioP2;P2;SDS_P1;SDS_P2;PMS_P1;PMS_P2;Temp;Humidity;BMP_temperature;BMP_pressure;BME280_temperature;BME280_humidity;BME280_pressure;Samples;Min_cycle;Max_cycle;Signal;HPM_P1;HPM_P2
2021/03/06 00:00:57;;;;;;;3.00;1.30;;;3.10;99.90;;;;;;20728698;28;20076;-64
2021/03/06 00:10:59;;;;;;;2.45;1.38;;;2.70;99.90;;;;;;20726693;28;20133;-64
2021/03/06 00:21:00;;;;;;;4.88;1.80;;;2.30;99.90;;;;;;20726392;28;20037;-63
2021/03/06 00:31:02;;;;;;;4.65;1.38;;;1.80;99.90;;;;;;20708386;28;20046;-63
2021/03/06 00:41:04;;;;;;;4.05;1.90;;;1.40;99.90;;;;;;20725681;28;20052;-63
2021/03/06 00:51:07;;;;;;;4.60;2.13;;;1.50;99.90;;;;;;20724213;28;20049;-64
2021/03/06 01:01:12;;;;;;;5.78;3.08;;;1.60;99.90;;;;;;20706263;28;20451;-64
2021/03/06 01:11:15;;;;;;;9.07;3.80;;;1.90;99.90;;;;;;20705458;28;20057;-64
2021/03/06 01:21:17;;;;;;;6.80;3.78;;;2.20;99.90;;;;;;20705189;28;20042;-65
2021/03/06 01:31:19;;;;;;;10.13;4.75;;;2.20;99.90;;;;;;20723124;28;20046;-65
2021/03/06 01:41:21;;;;;;;7.28;3.78;;;2.20;99.90;;;;;;20739314;28;20046;-65
2021/03/06 01:51:23;;;;;;;7.25;3.85;;;2.00;99.90;;;;;;20720206;28;20037;-65
2021/03/06 02:01:25;;;;;;;13.20;4.30;;;1.70;99.90;;;;;;20720169;28;20124;-65
2021/03/06 02:12:04;;;;;;;12.98;5.65;;;1.60;99.90;;;;;;20736429;28;20104;-65
2021/03/06 02:22:24;;;;;;;15.63;7.22;;;1.60;99.90;;;;;;20735625;28;20116;-64
2021/03/06 02:32:39;;;;;;;13.83;6.00;;;1.50;99.90;;;;;;20735057;28;20099;-64
2021/03/06 02:42:42;;;;;;;18.08;7.88;;;1.20;99.90;;;;;;20700700;28;20065;-64
2021/03/06 02:52:44;;;;;;;15.27;6.97;;;0.80;99.90;;;;;;20715726;28;20100;-64
2021/03/06 03:03:08;;;;;;;13.25;5.80;;;0.80;99.90;;;;;;20731974;28;20054;-63
2021/03/06 03:13:23;;;;;;;10.48;5.40;;;1.00;99.90;;;;;;20714208;28;20042;-64
2021/03/06 03:23:39;;;;;;;12.70;6.20;;;1.10;99.90;;;;;;20731278;28;20042;-63
2021/03/06 03:33:42;;;;;;;7.20;3.60;;;1.30;99.90;;;;;;20713352;28;20069;-63
2021/03/06 03:43:45;;;;;;;8.07;3.80;;;1.10;99.90;;;;;;20729130;28;20463;-63
2021/03/06 03:53:48;;;;;;;7.85;3.63;;;1.10;99.90;;;;;;20712141;28;20042;-63
2021/03/06 04:03:50;;;;;;;7.72;3.70;;;1.10;99.90;;;;;;20726406;28;20107;-63
2021/03/06 04:13:52;;;;;;;8.43;4.25;;;1.20;99.90;;;;;;20727088;28;20104;-63
2021/03/06 04:23:54;;;;;;;5.75;3.13;;;1.10;99.90;;;;;;20726315;28;20037;-63
2021/03/06 04:33:56;;;;;;;5.88;2.80;;;0.70;99.90;;;;;;20726437;28;20039;-63
2021/03/06 04:43:58;;;;;;;5.43;3.00;;;0.70;99.90;;;;;;20749815;28;20038;-63
2021/03/06 04:54:00;;;;;;;8.00;2.97;;;1.00;99.90;;;;;;20729814;28;20095;-63
2021/03/06 05:04:01;;;;;;;5.40;2.97;;;1.00;99.90;;;;;;20706358;28;20073;-63
2021/03/06 05:14:04;;;;;;;4.13;1.52;;;0.70;99.90;;;;;;20704826;28;20065;-64
2021/03/06 05:24:07;;;;;;;2.67;1.42;;;0.60;99.90;;;;;;20723012;28;20042;-64
2021/03/06 05:34:09;;;;;;;3.58;1.60;;;0.70;99.90;;;;;;20721732;28;20053;-63
2021/03/06 05:44:12;;;;;;;6.30;2.28;;;0.60;99.90;;;;;;20730386;28;20042;-63
2021/03/06 05:54:15;;;;;;;5.22;2.30;;;0.20;99.90;;;;;;20723888;28;20026;-64
2021/03/06 06:04:17;;;;;;;3.63;1.88;;;-0.10;99.90;;;;;;20722377;28;20169;-63
2021/03/06 06:14:19;;;;;;;2.03;1.20;;;0.10;99.90;;;;;;20703834;28;20348;-64
2021/03/06 06:24:22;;;;;;;2.97;1.20;;;0.20;99.90;;;;;;20697100;28;20034;-64
2021/03/06 06:34:25;;;;;;;2.67;1.27;;;0.50;99.90;;;;;;20716971;28;20100;-64
2021/03/06 06:44:28;;;;;;;2.17;1.15;;;0.90;99.90;;;;;;20733946;28;20093;-64
2021/03/06 06:54:33;;;;;;;2.90;1.38;;;1.20;99.90;;;;;;20733404;28;20072;-64
2021/03/06 07:04:48;;;;;;;1.70;0.82;;;1.30;99.90;;;;;;20732907;28;20054;-65
2021/03/06 07:14:51;;;;;;;1.73;0.95;;;1.50;99.90;;;;;;20732858;28;20034;-65
2021/03/06 07:24:53;;;;;;;1.75;1.05;;;1.50;99.90;;;;;;20741052;28;20070;-65
2021/03/06 07:35:03;;;;;;;1.95;1.00;;;1.60;99.90;;;;;;20729788;28;20468;-65
2021/03/06 07:45:06;;;;;;;1.90;1.00;;;2.00;99.90;;;;;;20713230;28;20508;-64
2021/03/06 07:55:11;;;;;;;2.42;1.40;;;2.20;99.90;;;;;;20728470;28;20034;-64
2021/03/06 08:05:45;;;;;;;2.35;1.45;;;2.40;99.90;;;;;;20728367;28;20120;-65
2021/03/06 08:15:47;;;;;;;2.38;1.60;;;2.90;99.90;;;;;;20726725;28;20050;-65
2021/03/06 08:26:16;;;;;;;3.05;1.42;;;3.40;99.90;;;;;;20726053;28;20034;-66
2021/03/06 08:36:27;;;;;;;2.25;1.50;;;4.00;99.90;;;;;;20695486;28;20045;-66
2021/03/06 08:46:30;;;;;;;;;;;4.00;99.90;;;;;;20708397;28;20045;-66
2021/03/06 08:56:40;;;;;;;2.97;1.88;;;4.00;99.90;;;;;;20724222;28;19914;-66
2021/03/06 09:06:42;;;;;;;1.93;1.43;;;4.30;99.90;;;;;;20782819;28;20049;-66
2021/03/06 09:16:48;;;;;;;2.58;1.70;;;5.10;99.90;;;;;;20723001;28;20050;-66
2021/03/06 09:26:52;;;;;;;2.55;1.60;;;5.40;99.90;;;;;;20722569;28;20474;-65
2021/03/06 09:36:55;;;;;;;3.25;2.13;;;5.50;99.90;;;;;;20722234;28;20420;-65
2021/03/06 09:46:59;;;;;;;1.80;1.52;;;5.30;99.90;;;;;;20688542;28;20112;-66
2021/03/06 09:57:05;;;;;;;3.28;1.80;;;5.30;99.90;;;;;;20728409;28;20045;-65
2021/03/06 10:07:10;;;;;;;5.60;3.05;;;4.80;99.90;;;;;;20718770;28;20108;-65
2021/03/06 10:17:13;;;;;;;7.70;4.30;;;4.20;99.90;;;;;;20736525;28;20463;-65
2021/03/06 10:27:15;;;;;;;8.48;3.83;;;3.70;99.90;;;;;;20735903;28;20387;-65
2021/03/06 10:37:19;;;;;;;8.02;4.03;;;3.40;99.90;;;;;;20734228;28;20530;-65
2021/03/06 10:47:21;;;;;;;6.82;3.95;;;3.00;99.90;;;;;;20733078;28;20459;-65
2021/03/06 10:57:27;;;;;;;6.68;3.42;;;2.90;99.90;;;;;;20728568;28;20119;-64
2021/03/06 11:07:29;;;;;;;5.53;3.50;;;2.70;99.90;;;;;;20732177;28;20417;-64
2021/03/06 11:17:31;;;;;;;6.72;4.05;;;2.60;99.90;;;;;;20731898;28;20408;-64
2021/03/06 11:27:53;;;;;;;7.03;3.90;;;2.50;99.90;;;;;;20741924;28;20409;-65
2021/03/06 11:37:56;;;;;;;6.68;3.85;;;2.60;99.90;;;;;;20696849;28;20478;-64
2021/03/06 11:47:58;;;;;;;6.88;4.07;;;2.60;99.90;;;;;;20729453;28;20107;-65
2021/03/06 11:58:00;;;;;;;6.53;3.90;;;3.00;99.90;;;;;;20728403;28;20180;-65
2021/03/06 12:08:02;;;;;;;6.22;4.13;;;3.50;99.90;;;;;;20994045;23;20111;-51
2021/03/06 12:18:04;;;;;;;6.47;4.07;;;3.40;99.90;;;;;;20842013;28;20501;-47
2021/03/06 12:28:07;;;;;;;7.10;4.30;;;3.60;99.90;;;;;;20795105;28;20446;-47
2021/03/06 12:38:10;;;;;;;6.97;4.57;;;3.60;99.90;;;;;;20811709;28;20441;-45
2021/03/06 12:48:12;;;;;;;8.18;5.10;;;3.20;99.90;;;;;;20842887;28;20033;-45
2021/03/06 12:58:14;;;;;;;10.18;6.10;;;3.10;99.90;;;;;;20836405;28;20039;-46
2021/03/06 13:08:16;;;;;;;11.25;6.00;;;3.10;99.90;;;;;;20852963;28;20048;-49
2021/03/06 13:18:18;;;;;;;8.57;5.68;;;3.10;99.90;;;;;;20854245;28;20513;-48
2021/03/06 13:28:20;;;;;;;12.25;6.35;;;3.20;99.90;;;;;;20854028;28;20103;-49
2021/03/06 13:38:22;;;;;;;9.30;6.15;;;3.50;99.90;;;;;;20869344;28;20099;-45
2021/03/06 13:48:24;;;;;;;8.80;5.50;;;3.80;99.90;;;;;;20853586;28;20045;-45
2021/03/06 13:58:26;;;;;;;11.00;6.45;;;4.00;99.90;;;;;;20867694;28;20033;-45
2021/03/06 14:08:28;;;;;;;9.73;6.40;;;3.80;99.90;;;;;;20867580;28;20053;-46
2021/03/06 14:18:30;;;;;;;8.80;5.65;;;3.90;99.90;;;;;;20899176;28;20071;-46
2021/03/06 14:28:32;;;;;;;8.38;5.68;;;4.10;99.90;;;;;;20900021;28;20049;-47
2021/03/06 14:38:34;;;;;;;8.18;5.43;;;3.70;99.90;;;;;;20848400;28;20397;-52
2021/03/06 14:48:36;;;;;;;9.48;5.65;;;3.40;99.90;;;;;;20881136;28;20449;-48
2021/03/06 14:58:37;;;;;;;8.68;5.45;;;3.40;99.90;;;;;;20897207;28;20025;-47
2021/03/06 15:08:39;;;;;;;8.55;5.47;;;3.40;99.90;;;;;;20863145;28;20049;-46
2021/03/06 15:18:41;;;;;;;9.25;5.90;;;3.60;99.90;;;;;;20896392;28;20033;-47
2021/03/06 15:28:43;;;;;;;9.57;5.80;;;3.70;99.90;;;;;;20778547;28;20045;-47
2021/03/06 15:38:45;;;;;;;9.98;6.18;;;3.60;99.90;;;;;;20838683;28;20024;-47
2021/03/06 15:48:47;;;;;;;9.88;5.68;;;3.60;99.90;;;;;;20876740;28;20094;-47
2021/03/06 15:58:50;;;;;;;10.90;6.28;;;3.30;99.90;;;;;;20874037;28;20041;-46
2021/03/06 16:08:52;;;;;;;10.43;6.30;;;2.70;99.90;;;;;;20891390;28;20049;-48
2021/03/06 16:18:54;;;;;;;10.05;5.72;;;2.20;99.90;;;;;;20858571;28;20033;-55
2021/03/06 16:28:56;;;;;;;10.02;5.65;;;1.70;99.90;;;;;;20888900;28;20040;-48
2021/03/06 16:38:58;;;;;;;9.32;5.53;;;1.30;99.90;;;;;;20854297;28;20029;-50
2021/03/06 16:49:01;;;;;;;9.77;5.97;;;1.00;99.90;;;;;;20855320;28;20060;-50
2021/03/06 16:59:03;;;;;;;10.63;5.78;;;0.70;99.90;;;;;;20888261;28;20025;-50
2021/03/06 17:09:06;;;;;;;13.13;6.35;;;0.40;99.90;;;;;;20857802;28;20056;-48
2021/03/06 17:19:11;;;;;;;11.32;6.30;;;-0.20;99.90;;;;;;20853269;28;20037;-48
2021/03/06 17:29:15;;;;;;;13.05;6.90;;;-0.80;99.90;;;;;;20887636;28;20094;-48
2021/03/06 17:39:17;;;;;;;11.93;6.13;;;-1.50;99.90;;;;;;20868552;28;20086;-47
2021/03/06 17:49:19;;;;;;;11.70;6.47;;;-1.80;99.90;;;;;;20886358;28;20048;-47
2021/03/06 17:59:21;;;;;;;14.82;7.10;;;-2.10;99.90;;;;;;20851356;28;20529;-47
2021/03/06 18:09:24;;;;;;;21.63;9.57;;;-2.40;99.90;;;;;;20850301;28;20048;-48
2021/03/06 18:19:26;;;;;;;20.77;9.52;;;-2.60;99.90;;;;;;20860648;28;20025;-49
2021/03/06 18:29:28;;;;;;;14.85;7.70;;;-2.70;99.90;;;;;;20880550;28;20036;-48
2021/03/06 18:39:30;;;;;;;15.77;8.32;;;-2.80;99.90;;;;;;20848962;28;20472;-49
2021/03/06 18:49:32;;;;;;;14.48;7.50;;;-2.90;99.90;;;;;;20864292;28;20048;-48
2021/03/06 18:59:34;;;;;;;14.43;7.13;;;-3.00;99.90;;;;;;20896817;28;20479;-48
2021/03/06 19:09:36;;;;;;;15.00;7.20;;;-3.10;99.90;;;;;;20896600;28;20083;-48
2021/03/06 19:19:38;;;;;;;16.23;8.38;;;-3.20;99.90;;;;;;20879483;28;20067;-48
2021/03/06 19:29:41;;;;;;;15.52;7.35;;;-3.20;99.90;;;;;;20893093;28;20045;-47
2021/03/06 19:39:44;;;;;;;17.85;8.40;;;-3.20;99.90;;;;;;20876724;28;20086;-51
2021/03/06 19:49:46;;;;;;;17.65;8.10;;;-3.30;99.90;;;;;;20843900;28;20114;-47
2021/03/06 19:59:49;;;;;;;14.68;7.35;;;-3.30;99.90;;;;;;20858632;28;20061;-51
2021/03/06 20:09:52;;;;;;;16.88;7.45;;;-3.30;99.90;;;;;;20874674;28;20127;-53
2021/03/06 20:19:58;;;;;;;17.95;7.95;;;-3.30;99.90;;;;;;20857958;28;20106;-47
2021/03/06 20:30:05;;;;;;;13.27;7.05;;;-3.30;99.90;;;;;;20873075;28;20390;-50
2021/03/06 20:40:11;;;;;;;17.58;7.93;;;-3.40;99.90;;;;;;20855066;28;20036;-47
2021/03/06 20:50:16;;;;;;;16.00;7.10;;;-3.30;99.90;;;;;;20869893;28;20053;-47
2021/03/06 21:00:22;;;;;;;16.15;7.55;;;-3.40;99.90;;;;;;20887539;28;20032;-49
2021/03/06 21:10:26;;;;;;;15.35;7.60;;;-3.40;99.90;;;;;;20771781;28;20045;-47
2021/03/06 21:20:28;;;;;;;14.98;7.22;;;-3.40;99.90;;;;;;20706849;28;20447;-48
2021/03/06 21:30:33;;;;;;;16.40;7.28;;;-3.50;99.90;;;;;;20706379;28;20123;-47
2021/03/06 21:40:36;;;;;;;16.20;7.72;;;-3.50;99.90;;;;;;20689064;28;20107;-49
2021/03/06 21:50:39;;;;;;;16.95;7.68;;;-3.50;99.90;;;;;;20675804;28;20053;-47
2021/03/06 22:00:41;;;;;;;13.20;6.40;;;-3.60;99.90;;;;;;20747311;28;20770;-48
2021/03/06 22:10:44;;;;;;;14.70;7.20;;;-3.70;99.90;;;;;;20764329;28;20049;-54
2021/03/06 22:20:46;;;;;;;19.23;8.07;;;-3.70;99.90;;;;;;20703862;28;20052;-50
2021/03/06 22:30:48;;;;;;;16.45;7.10;;;-3.60;99.90;;;;;;20744475;28;20091;-49
2021/03/06 22:40:51;;;;;;;17.48;7.07;;;-3.60;99.90;;;;;;20772408;28;20041;-49
2021/03/06 22:50:53;;;;;;;13.40;6.90;;;-3.70;99.90;;;;;;20716344;28;20046;-49
2021/03/06 23:00:59;;;;;;;15.57;7.03;;;-3.70;99.90;;;;;;20780608;28;20087;-48
2021/03/06 23:11:05;;;;;;;14.68;6.53;;;-3.90;99.90;;;;;;20889073;28;20049;-49
2021/03/06 23:21:07;;;;;;;15.82;7.13;;;-4.00;99.90;;;;;;20862713;28;20087;-49
2021/03/06 23:31:09;;;;;;;15.80;8.13;;;-4.10;99.90;;;;;;20861546;28;20099;-48
2021/03/06 23:41:11;;;;;;;13.82;6.78;;;-4.00;99.90;;;;;;20894832;28;20096;-50
2021/03/06 23:51:13;;;;;;;14.32;6.47;;;-4.00;99.90;;;;;;20893573;28;20106;-48
